sensor_id;sensor_type;location;lat;lon;timestamp;pressure;altitude;pressure_sealevel;temperature;humidity
60479;BME280;46321;48.398;11.754;2022-07-23T00:00:00;96568.66;;;23.32;55.41
60479;BME280;46321;48.398;11.754;2022-07-23T00:02:25;96561.94;;;23.35;55.65
60479;BME280;46321;48.398;11.754;2022-07-23T00:04:50;96556.81;;;23.33;55.76
60479;BME280;46321;48.398;11.754;2022-07-23T00:07:16;96556.53;;;23.35;56.03
60479;BME280;46321;48.398;11.754;2022-07-23T00:09:41;96547.88;;;23.33;55.77
60479;BME280;46321;48.398;11.754;2022-07-23T00:12:07;96551.09;;;23.30;56.57
60479;BME280;46321;48.398;11.754;2022-07-23T00:14:32;96557.84;;;23.27;57.50
60479;BME280;46321;48.398;11.754;2022-07-23T00:16:57;96559.94;;;23.20;57.90
60479;BME280;46321;48.398;11.754;2022-07-23T00:19:23;96550.75;;;23.21;57.94
60479;BME280;46321;48.398;11.754;2022-07-23T00:21:48;96548.03;;;23.16;57.67
60479;BME280;46321;48.398;11.754;2022-07-23T00:24:14;96546.34;;;23.09;56.79
60479;BME280;46321;48.398;11.754;2022-07-23T00:26:39;96544.63;;;23.03;57.55
60479;BME280;46321;48.398;11.754;2022-07-23T00:29:04;96549.47;;;23.01;57.25
60479;BME280;46321;48.398;11.754;2022-07-23T00:31:30;96550.81;;;22.98;57.05
60479;BME280;46321;48.398;11.754;2022-07-23T00:33:55;96556.97;;;22.94;57.16
60479;BME280;46321;48.398;11.754;2022-07-23T00:36:26;96568.28;;;22.91;57.69
60479;BME280;46321;48.398;11.754;2022-07-23T00:38:51;96560.13;;;22.85;57.42
60479;BME280;46321;48.398;11.754;2022-07-23T00:41:17;96559.13;;;22.92;57.32
60479;BME280;46321;48.398;11.754;2022-07-23T00:43:42;96552.59;;;22.87;56.98
60479;BME280;46321;48.398;11.754;2022-07-23T00:46:07;96545.84;;;22.85;57.05
60479;BME280;46321;48.398;11.754;2022-07-23T00:48:33;96548.56;;;22.90;57.47
60479;BME280;46321;48.398;11.754;2022-07-23T00:50:58;96542.31;;;22.84;57.16
60479;BME280;46321;48.398;11.754;2022-07-23T00:53:24;96538.31;;;22.87;56.98
60479;BME280;46321;48.398;11.754;2022-07-23T00:55:49;96543.91;;;22.80;57.27
60479;BME280;46321;48.398;11.754;2022-07-23T00:58:16;96535.06;;;22.90;56.92
60479;BME280;46321;48.398;11.754;2022-07-23T01:00:41;96534.25;;;22.90;57.14
60479;BME280;46321;48.398;11.754;2022-07-23T01:03:07;96531.00;;;22.87;57.10
60479;BME280;46321;48.398;11.754;2022-07-23T01:05:32;96536.91;;;22.84;57.34
60479;BME280;46321;48.398;11.754;2022-07-23T01:07:58;96529.06;;;22.83;56.92
60479;BME280;46321;48.398;11.754;2022-07-23T01:10:24;96535.47;;;22.76;57.13
60479;BME280;46321;48.398;11.754;2022-07-23T01:15:24;96540.88;;;22.76;57.61
60479;BME280;46321;48.398;11.754;2022-07-23T01:17:50;96544.44;;;22.82;57.57
60479;BME280;46321;48.398;11.754;2022-07-23T01:20:15;96568.03;;;22.70;57.88
60479;BME280;46321;48.398;11.754;2022-07-23T01:22:40;96586.34;;;22.68;58.00
60479;BME280;46321;48.398;11.754;2022-07-23T01:25:06;96592.09;;;22.71;58.07
60479;BME280;46321;48.398;11.754;2022-07-23T01:27:32;96614.59;;;22.82;58.22
60479;BME280;46321;48.398;11.754;2022-07-23T01:29:59;96618.91;;;22.83;58.90
60479;BME280;46321;48.398;11.754;2022-07-23T01:32:25;96644.84;;;22.84;58.68
60479;BME280;46321;48.398;11.754;2022-07-23T01:34:50;96643.19;;;22.83;56.64
60479;BME280;46321;48.398;11.754;2022-07-23T01:37:15;96652.03;;;22.79;55.71
60479;BME280;46321;48.398;11.754;2022-07-23T01:39:41;96656.06;;;22.76;54.65
60479;BME280;46321;48.398;11.754;2022-07-23T01:42:06;96684.09;;;22.75;53.79
60479;BME280;46321;48.398;11.754;2022-07-23T01:44:31;96706.56;;;22.63;53.00
60479;BME280;46321;48.398;11.754;2022-07-23T01:46:57;96712.16;;;22.57;52.01
60479;BME280;46321;48.398;11.754;2022-07-23T01:49:22;96726.38;;;22.52;52.40
60479;BME280;46321;48.398;11.754;2022-07-23T01:51:47;96718.03;;;22.36;52.91
60479;BME280;46321;48.398;11.754;2022-07-23T01:54:29;96709.34;;;22.29;53.52
60479;BME280;46321;48.398;11.754;2022-07-23T01:56:55;96705.47;;;22.25;53.42
60479;BME280;46321;48.398;11.754;2022-07-23T01:59:21;96717.50;;;22.17;53.38
60479;BME280;46321;48.398;11.754;2022-07-23T02:01:46;96701.81;;;22.14;54.01
60479;BME280;46321;48.398;11.754;2022-07-23T02:04:12;96716.72;;;22.04;54.41
60479;BME280;46321;48.398;11.754;2022-07-23T02:06:37;96725.00;;;21.98;55.04
60479;BME280;46321;48.398;11.754;2022-07-23T02:09:03;96721.38;;;21.92;56.32
60479;BME280;46321;48.398;11.754;2022-07-23T02:11:28;96727.41;;;21.82;57.88
60479;BME280;46321;48.398;11.754;2022-07-23T02:13:53;96738.53;;;21.73;59.22
60479;BME280;46321;48.398;11.754;2022-07-23T02:16:18;96751.72;;;21.58;60.92
60479;BME280;46321;48.398;11.754;2022-07-23T02:18:44;96779.66;;;21.39;62.69
60479;BME280;46321;48.398;11.754;2022-07-23T02:21:09;96776.75;;;21.29;63.77
60479;BME280;46321;48.398;11.754;2022-07-23T02:23:34;96791.53;;;21.02;65.94
60479;BME280;46321;48.398;11.754;2022-07-23T02:26:00;96803.69;;;20.93;67.38
60479;BME280;46321;48.398;11.754;2022-07-23T02:28:25;96799.13;;;20.81;68.19
60479;BME280;46321;48.398;11.754;2022-07-23T02:30:50;96801.00;;;20.69;69.13
60479;BME280;46321;48.398;11.754;2022-07-23T02:33:16;96803.31;;;20.53;69.44
60479;BME280;46321;48.398;11.754;2022-07-23T02:35:41;96806.84;;;20.54;69.93
60479;BME280;46321;48.398;11.754;2022-07-23T02:38:06;96803.88;;;20.43;70.65
60479;BME280;46321;48.398;11.754;2022-07-23T02:40:31;96800.00;;;20.27;72.17
60479;BME280;46321;48.398;11.754;2022-07-23T02:42:57;96787.81;;;20.12;73.99
60479;BME280;46321;48.398;11.754;2022-07-23T02:45:22;96796.34;;;20.09;73.83
60479;BME280;46321;48.398;11.754;2022-07-23T02:47:48;96800.47;;;20.05;73.54
60479;BME280;46321;48.398;11.754;2022-07-23T02:50:13;96797.81;;;20.05;72.40
60479;BME280;46321;48.398;11.754;2022-07-23T02:52:38;96787.06;;;20.05;72.21
60479;BME280;46321;48.398;11.754;2022-07-23T02:55:05;96780.59;;;19.94;73.26
60479;BME280;46321;48.398;11.754;2022-07-23T02:57:30;96782.00;;;19.85;74.19
60479;BME280;46321;48.398;11.754;2022-07-23T02:59:55;96769.38;;;19.85;75.77
60479;BME280;46321;48.398;11.754;2022-07-23T03:02:21;96747.28;;;19.83;76.06
60479;BME280;46321;48.398;11.754;2022-07-23T03:04:46;96733.50;;;19.79;76.69
60479;BME280;46321;48.398;11.754;2022-07-23T03:07:11;96707.69;;;19.66;76.99
60479;BME280;46321;48.398;11.754;2022-07-23T03:09:37;96691.75;;;19.53;77.76
60479;BME280;46321;48.398;11.754;2022-07-23T03:12:02;96711.03;;;19.62;77.68
60479;BME280;46321;48.398;11.754;2022-07-23T03:14:28;96690.00;;;19.59;78.70
60479;BME280;46321;48.398;11.754;2022-07-23T03:16:53;96690.44;;;19.43;79.08
60479;BME280;46321;48.398;11.754;2022-07-23T03:19:19;96687.91;;;19.49;78.97
60479;BME280;46321;48.398;11.754;2022-07-23T03:21:44;96684.53;;;19.53;78.33
60479;BME280;46321;48.398;11.754;2022-07-23T03:24:10;96681.47;;;19.50;79.12
60479;BME280;46321;48.398;11.754;2022-07-23T03:26:35;96682.38;;;19.43;79.15
60479;BME280;46321;48.398;11.754;2022-07-23T03:29:02;96690.56;;;19.49;79.13
60479;BME280;46321;48.398;11.754;2022-07-23T03:31:29;96679.47;;;19.45;78.86
60479;BME280;46321;48.398;11.754;2022-07-23T03:33:55;96675.09;;;19.32;78.21
60479;BME280;46321;48.398;11.754;2022-07-23T03:36:20;96656.88;;;19.22;79.25
60479;BME280;46321;48.398;11.754;2022-07-23T03:38:45;96646.75;;;19.24;80.20
60479;BME280;46321;48.398;11.754;2022-07-23T03:41:11;96640.00;;;19.15;81.69
60479;BME280;46321;48.398;11.754;2022-07-23T03:43:36;96651.19;;;19.11;81.51
60479;BME280;46321;48.398;11.754;2022-07-23T03:46:01;96654.88;;;19.17;81.18
60479;BME280;46321;48.398;11.754;2022-07-23T03:48:27;96652.91;;;19.25;80.73
60479;BME280;46321;48.398;11.754;2022-07-23T03:50:52;96658.34;;;19.18;81.89
60479;BME280;46321;48.398;11.754;2022-07-23T03:53:18;96651.97;;;19.19;81.67
60479;BME280;46321;48.398;11.754;2022-07-23T03:55:43;96631.53;;;19.18;82.03
60479;BME280;46321;48.398;11.754;2022-07-23T03:58:08;96645.00;;;19.11;82.69
60479;BME280;46321;48.398;11.754;2022-07-23T04:00:33;96638.16;;;19.15;82.25
60479;BME280;46321;48.398;11.754;2022-07-23T04:02:59;96643.91;;;19.19;81.40
60479;BME280;46321;48.398;11.754;2022-07-23T04:05:24;96644.06;;;19.24;81.16
60479;BME280;46321;48.398;11.754;2022-07-23T04:07:49;96649.78;;;19.09;82.30
60479;BME280;46321;48.398;11.754;2022-07-23T04:10:15;96643.97;;;19.12;81.40
60479;BME280;46321;48.398;11.754;2022-07-23T04:12:40;96635.91;;;19.12;80.79
60479;BME280;46321;48.398;11.754;2022-07-23T04:15:07;96649.34;;;19.12;79.19
60479;BME280;46321;48.398;11.754;2022-07-23T04:17:33;96635.44;;;18.84;79.86
60479;BME280;46321;48.398;11.754;2022-07-23T04:19:59;96638.84;;;18.92;79.69
60479;BME280;46321;48.398;11.754;2022-07-23T04:22:24;96644.22;;;18.92;79.14
60479;BME280;46321;48.398;11.754;2022-07-23T04:24:49;96642.94;;;18.94;80.61
60479;BME280;46321;48.398;11.754;2022-07-23T04:27:15;96654.13;;;18.91;80.67
60479;BME280;46321;48.398;11.754;2022-07-23T04:29:40;96654.72;;;18.93;80.18
60479;BME280;46321;48.398;11.754;2022-07-23T04:32:06;96657.47;;;18.86;80.69
60479;BME280;46321;48.398;11.754;2022-07-23T04:34:31;96657.69;;;18.85;81.17
60479;BME280;46321;48.398;11.754;2022-07-23T04:36:56;96643.63;;;18.90;81.54
60479;BME280;46321;48.398;11.754;2022-07-23T04:39:21;96653.41;;;18.84;80.91
60479;BME280;46321;48.398;11.754;2022-07-23T04:41:47;96642.81;;;18.89;80.50
60479;BME280;46321;48.398;11.754;2022-07-23T04:44:12;96640.50;;;18.93;80.44
60479;BME280;46321;48.398;11.754;2022-07-23T04:46:37;96642.03;;;19.00;80.17
60479;BME280;46321;48.398;11.754;2022-07-23T04:49:03;96637.13;;;18.97;79.92
60479;BME280;46321;48.398;11.754;2022-07-23T04:51:28;96650.09;;;19.00;80.63
60479;BME280;46321;48.398;11.754;2022-07-23T04:53:54;96654.72;;;18.93;81.42
60479;BME280;46321;48.398;11.754;2022-07-23T04:56:19;96653.69;;;18.94;82.72
60479;BME280;46321;48.398;11.754;2022-07-23T04:58:44;96662.91;;;18.98;82.70
60479;BME280;46321;48.398;11.754;2022-07-23T05:01:10;96653.44;;;18.96;83.04
60479;BME280;46321;48.398;11.754;2022-07-23T05:03:35;96639.44;;;18.94;83.09
60479;BME280;46321;48.398;11.754;2022-07-23T05:06:00;96632.59;;;18.98;82.74
60479;BME280;46321;48.398;11.754;2022-07-23T05:08:26;96628.28;;;18.97;83.44
60479;BME280;46321;48.398;11.754;2022-07-23T05:10:51;96630.88;;;19.04;83.35
60479;BME280;46321;48.398;11.754;2022-07-23T05:13:17;96621.56;;;19.06;83.82
60479;BME280;46321;48.398;11.754;2022-07-23T05:15:43;96619.22;;;19.10;83.46
60479;BME280;46321;48.398;11.754;2022-07-23T05:18:08;96623.53;;;19.11;83.85
60479;BME280;46321;48.398;11.754;2022-07-23T05:20:33;96628.69;;;19.13;83.70
60479;BME280;46321;48.398;11.754;2022-07-23T05:22:59;96628.63;;;19.19;84.25
60479;BME280;46321;48.398;11.754;2022-07-23T05:25:24;96625.97;;;19.19;83.88
60479;BME280;46321;48.398;11.754;2022-07-23T05:27:49;96629.34;;;19.27;82.37
60479;BME280;46321;48.398;11.754;2022-07-23T05:30:15;96648.84;;;19.34;81.54
60479;BME280;46321;48.398;11.754;2022-07-23T05:32:40;96645.00;;;19.30;82.81
60479;BME280;46321;48.398;11.754;2022-07-23T05:35:06;96639.47;;;19.25;83.83
60479;BME280;46321;48.398;11.754;2022-07-23T05:37:32;96643.00;;;19.25;84.30
60479;BME280;46321;48.398;11.754;2022-07-23T05:40:06;96653.03;;;19.30;83.60
60479;BME280;46321;48.398;11.754;2022-07-23T05:42:41;96656.56;;;19.42;82.04
60479;BME280;46321;48.398;11.754;2022-07-23T05:45:10;96660.91;;;19.43;81.53
60479;BME280;46321;48.398;11.754;2022-07-23T05:47:48;96670.47;;;19.39;83.59
60479;BME280;46321;48.398;11.754;2022-07-23T05:50:15;96664.81;;;19.29;85.96
60479;BME280;46321;48.398;11.754;2022-07-23T05:52:40;96666.31;;;19.25;85.91
60479;BME280;46321;48.398;11.754;2022-07-23T05:55:07;96671.69;;;19.25;86.17
60479;BME280;46321;48.398;11.754;2022-07-23T05:57:33;96673.25;;;19.32;85.22
60479;BME280;46321;48.398;11.754;2022-07-23T05:59:58;96666.81;;;19.33;85.89
60479;BME280;46321;48.398;11.754;2022-07-23T06:02:24;96671.88;;;19.42;84.46
60479;BME280;46321;48.398;11.754;2022-07-23T06:04:49;96675.59;;;19.41;84.31
60479;BME280;46321;48.398;11.754;2022-07-23T06:07:14;96683.41;;;19.42;84.35
60479;BME280;46321;48.398;11.754;2022-07-23T06:09:39;96678.94;;;19.55;82.72
60479;BME280;46321;48.398;11.754;2022-07-23T06:12:05;96676.16;;;19.62;81.84
60479;BME280;46321;48.398;11.754;2022-07-23T06:14:30;96672.63;;;19.61;81.35
60479;BME280;46321;48.398;11.754;2022-07-23T06:16:56;96679.56;;;19.69;82.46
60479;BME280;46321;48.398;11.754;2022-07-23T06:19:21;96675.94;;;19.75;81.66
60479;BME280;46321;48.398;11.754;2022-07-23T06:21:46;96669.41;;;19.83;80.58
60479;BME280;46321;48.398;11.754;2022-07-23T06:24:12;96664.19;;;19.88;79.89
60479;BME280;46321;48.398;11.754;2022-07-23T06:26:37;96660.41;;;19.89;80.07
60479;BME280;46321;48.398;11.754;2022-07-23T06:29:02;96653.56;;;19.94;79.66
60479;BME280;46321;48.398;11.754;2022-07-23T06:31:28;96655.78;;;19.97;78.95
60479;BME280;46321;48.398;11.754;2022-07-23T06:33:54;96641.88;;;20.00;78.73
60479;BME280;46321;48.398;11.754;2022-07-23T06:36:19;96641.66;;;20.01;79.30
60479;BME280;46321;48.398;11.754;2022-07-23T06:38:51;96641.53;;;20.08;78.57
60479;BME280;46321;48.398;11.754;2022-07-23T06:41:16;96638.31;;;20.18;78.05
60479;BME280;46321;48.398;11.754;2022-07-23T06:43:41;96650.81;;;20.24;78.09
60479;BME280;46321;48.398;11.754;2022-07-23T06:46:07;96647.19;;;20.31;77.93
60479;BME280;46321;48.398;11.754;2022-07-23T06:48:32;96650.09;;;20.29;77.34
60479;BME280;46321;48.398;11.754;2022-07-23T06:50:59;96648.69;;;20.39;77.07
60479;BME280;46321;48.398;11.754;2022-07-23T06:53:24;96659.66;;;20.49;77.63
60479;BME280;46321;48.398;11.754;2022-07-23T06:55:49;96658.03;;;20.60;79.01
60479;BME280;46321;48.398;11.754;2022-07-23T06:58:15;96655.22;;;20.67;80.31
60479;BME280;46321;48.398;11.754;2022-07-23T07:00:40;96656.81;;;20.68;80.73
60479;BME280;46321;48.398;11.754;2022-07-23T07:03:05;96659.88;;;20.71;80.56
60479;BME280;46321;48.398;11.754;2022-07-23T07:05:31;96669.94;;;20.76;79.14
60479;BME280;46321;48.398;11.754;2022-07-23T07:07:56;96701.72;;;20.79;78.33
60479;BME280;46321;48.398;11.754;2022-07-23T07:10:22;96732.44;;;20.83;77.20
60479;BME280;46321;48.398;11.754;2022-07-23T07:12:47;96749.16;;;20.86;75.40
60479;BME280;46321;48.398;11.754;2022-07-23T07:17:38;96735.13;;;20.96;75.21
60479;BME280;46321;48.398;11.754;2022-07-23T07:20:04;96732.00;;;20.99;74.15
60479;BME280;46321;48.398;11.754;2022-07-23T07:22:29;96718.31;;;21.12;74.16
60479;BME280;46321;48.398;11.754;2022-07-23T07:24:54;96715.56;;;21.24;73.59
60479;BME280;46321;48.398;11.754;2022-07-23T07:27:20;96706.91;;;21.22;73.35
60479;BME280;46321;48.398;11.754;2022-07-23T07:29:45;96711.81;;;21.25;73.85
60479;BME280;46321;48.398;11.754;2022-07-23T07:32:10;96700.34;;;21.30;73.67
60479;BME280;46321;48.398;11.754;2022-07-23T07:34:36;96719.19;;;21.30;72.16
60479;BME280;46321;48.398;11.754;2022-07-23T07:37:01;96711.91;;;21.31;73.10
60479;BME280;46321;48.398;11.754;2022-07-23T07:39:26;96707.59;;;21.30;71.83
60479;BME280;46321;48.398;11.754;2022-07-23T07:41:52;96714.84;;;21.29;72.88
60479;BME280;46321;48.398;11.754;2022-07-23T07:44:17;96704.41;;;21.33;73.01
60479;BME280;46321;48.398;11.754;2022-07-23T07:46:42;96713.66;;;21.37;73.01
60479;BME280;46321;48.398;11.754;2022-07-23T07:49:08;96715.84;;;21.40;73.07
60479;BME280;46321;48.398;11.754;2022-07-23T07:51:33;96722.66;;;21.43;73.22
60479;BME280;46321;48.398;11.754;2022-07-23T07:53:59;96728.59;;;21.45;73.69
60479;BME280;46321;48.398;11.754;2022-07-23T07:56:24;96737.41;;;21.40;72.87
60479;BME280;46321;48.398;11.754;2022-07-23T07:58:49;96739.50;;;21.38;73.70
60479;BME280;46321;48.398;11.754;2022-07-23T08:01:15;96730.84;;;21.36;73.98
60479;BME280;46321;48.398;11.754;2022-07-23T08:03:40;96723.84;;;21.35;74.73
60479;BME280;46321;48.398;11.754;2022-07-23T08:06:05;96732.50;;;21.37;73.60
60479;BME280;46321;48.398;11.754;2022-07-23T08:08:31;96737.31;;;21.35;74.27
60479;BME280;46321;48.398;11.754;2022-07-23T08:10:56;96741.00;;;21.16;73.69
60479;BME280;46321;48.398;11.754;2022-07-23T08:13:21;96743.44;;;21.06;73.82
60479;BME280;46321;48.398;11.754;2022-07-23T08:15:47;96755.03;;;21.07;75.19
60479;BME280;46321;48.398;11.754;2022-07-23T08:18:12;96749.53;;;21.01;75.70
60479;BME280;46321;48.398;11.754;2022-07-23T08:20:37;96753.41;;;21.05;73.94
60479;BME280;46321;48.398;11.754;2022-07-23T08:23:05;96767.91;;;21.04;75.21
60479;BME280;46321;48.398;11.754;2022-07-23T08:25:34;96778.91;;;21.03;75.45
60479;BME280;46321;48.398;11.754;2022-07-23T08:28:01;96785.59;;;21.00;75.87
60479;BME280;46321;48.398;11.754;2022-07-23T08:30:27;96787.44;;;21.00;76.75
60479;BME280;46321;48.398;11.754;2022-07-23T08:32:56;96781.25;;;20.99;77.32
60479;BME280;46321;48.398;11.754;2022-07-23T08:37:59;96769.78;;;21.04;78.44
60479;BME280;46321;48.398;11.754;2022-07-23T08:40:30;96762.28;;;21.18;78.02
60479;BME280;46321;48.398;11.754;2022-07-23T08:42:56;96755.72;;;21.26;77.17
60479;BME280;46321;48.398;11.754;2022-07-23T08:45:23;96757.19;;;21.34;74.97
60479;BME280;46321;48.398;11.754;2022-07-23T08:47:50;96759.31;;;21.32;75.45
60479;BME280;46321;48.398;11.754;2022-07-23T08:50:15;96779.78;;;21.33;74.03
60479;BME280;46321;48.398;11.754;2022-07-23T08:52:41;96769.38;;;21.36;72.52
60479;BME280;46321;48.398;11.754;2022-07-23T08:55:07;96772.19;;;21.30;73.93
60479;BME280;46321;48.398;11.754;2022-07-23T08:57:33;96787.53;;;21.29;74.04
60479;BME280;46321;48.398;11.754;2022-07-23T08:59:58;96804.50;;;21.17;73.54
60479;BME280;46321;48.398;11.754;2022-07-23T09:02:24;96800.41;;;21.15;73.71
60479;BME280;46321;48.398;11.754;2022-07-23T09:04:49;96795.03;;;21.15;73.66
60479;BME280;46321;48.398;11.754;2022-07-23T09:07:14;96785.91;;;21.16;73.73
60479;BME280;46321;48.398;11.754;2022-07-23T09:09:40;96786.03;;;21.21;73.92
60479;BME280;46321;48.398;11.754;2022-07-23T09:12:08;96788.09;;;21.31;74.05
60479;BME280;46321;48.398;11.754;2022-07-23T09:14:37;96795.66;;;21.46;74.19
60479;BME280;46321;48.398;11.754;2022-07-23T09:17:14;96821.06;;;21.80;73.95
60479;BME280;46321;48.398;11.754;2022-07-23T09:19:40;96803.91;;;22.10;72.35
60479;BME280;46321;48.398;11.754;2022-07-23T09:22:23;96794.44;;;22.59;72.37
60479;BME280;46321;48.398;11.754;2022-07-23T09:25:08;96808.22;;;23.54;70.17
60479;BME280;46321;48.398;11.754;2022-07-23T09:30:11;96799.75;;;24.95;65.91
60479;BME280;46321;48.398;11.754;2022-07-23T09:32:38;96805.88;;;25.18;62.18
60479;BME280;46321;48.398;11.754;2022-07-23T09:35:04;96810.84;;;25.42;60.75
60479;BME280;46321;48.398;11.754;2022-07-23T09:37:29;96809.84;;;25.64;60.39
60479;BME280;46321;48.398;11.754;2022-07-23T09:40:04;96802.38;;;26.02;59.12
60479;BME280;46321;48.398;11.754;2022-07-23T09:42:30;96800.75;;;26.06;57.73
60479;BME280;46321;48.398;11.754;2022-07-23T09:44:57;96807.53;;;26.04;58.35
60479;BME280;46321;48.398;11.754;2022-07-23T09:47:25;96791.28;;;25.99;58.87
60479;BME280;46321;48.398;11.754;2022-07-23T09:50:07;96792.38;;;26.13;57.43
60479;BME280;46321;48.398;11.754;2022-07-23T09:52:48;96803.22;;;26.13;57.88
60479;BME280;46321;48.398;11.754;2022-07-23T09:55:14;96794.53;;;26.22;57.39
60479;BME280;46321;48.398;11.754;2022-07-23T09:57:41;96801.84;;;26.99;57.45
60479;BME280;46321;48.398;11.754;2022-07-23T10:00:08;96809.56;;;28.09;55.71
60479;BME280;46321;48.398;11.754;2022-07-23T10:02:36;96802.28;;;28.45;52.91
60479;BME280;46321;48.398;11.754;2022-07-23T10:05:02;96805.16;;;29.19;50.62
60479;BME280;46321;48.398;11.754;2022-07-23T10:07:31;96799.47;;;30.03;49.08
60479;BME280;46321;48.398;11.754;2022-07-23T10:09:59;96783.53;;;30.49;45.31
60479;BME280;46321;48.398;11.754;2022-07-23T10:12:25;96791.84;;;31.05;45.72
60479;BME280;46321;48.398;11.754;2022-07-23T10:15:09;96788.72;;;30.65;44.93
60479;BME280;46321;48.398;11.754;2022-07-23T10:17:35;96789.00;;;30.63;44.56
60479;BME280;46321;48.398;11.754;2022-07-23T10:20:01;96795.00;;;31.27;45.11
60479;BME280;46321;48.398;11.754;2022-07-23T10:22:33;96790.00;;;31.15;43.30
60479;BME280;46321;48.398;11.754;2022-07-23T10:28:31;96785.56;;;31.47;44.27
60479;BME280;46321;48.398;11.754;2022-07-23T10:33:44;96775.53;;;31.14;42.86
60479;BME280;46321;48.398;11.754;2022-07-23T10:36:31;96769.44;;;30.42;43.24
60479;BME280;46321;48.398;11.754;2022-07-23T10:39:04;96773.66;;;30.81;43.46
60479;BME280;46321;48.398;11.754;2022-07-23T10:41:38;96769.16;;;30.91;42.99
60479;BME280;46321;48.398;11.754;2022-07-23T10:44:13;96773.47;;;30.78;43.39
60479;BME280;46321;48.398;11.754;2022-07-23T10:46:58;96776.78;;;30.08;43.59
60479;BME280;46321;48.398;11.754;2022-07-23T10:49:42;96753.91;;;30.03;44.48
60479;BME280;46321;48.398;11.754;2022-07-23T10:54:56;96751.28;;;29.79;44.99
60479;BME280;46321;48.398;11.754;2022-07-23T10:57:48;96748.28;;;29.56;45.04
60479;BME280;46321;48.398;11.754;2022-07-23T11:00:25;96755.25;;;29.87;45.28
60479;BME280;46321;48.398;11.754;2022-07-23T11:02:53;96748.03;;;29.96;44.63
60479;BME280;46321;48.398;11.754;2022-07-23T11:05:24;96737.59;;;30.17;44.43
60479;BME280;46321;48.398;11.754;2022-07-23T11:24:04;96733.06;;;29.93;44.99
60479;BME280;46321;48.398;11.754;2022-07-23T11:26:49;96727.44;;;30.04;44.84
60479;BME280;46321;48.398;11.754;2022-07-23T11:32:04;96714.53;;;30.43;43.99
60479;BME280;46321;48.398;11.754;2022-07-23T11:34:39;96714.84;;;30.42;44.81
60479;BME280;46321;48.398;11.754;2022-07-23T11:37:10;96710.97;;;30.28;42.82
60479;BME280;46321;48.398;11.754;2022-07-23T11:39:37;96705.50;;;30.28;43.98
60479;BME280;46321;48.398;11.754;2022-07-23T11:42:04;96703.47;;;30.01;44.32
60479;BME280;46321;48.398;11.754;2022-07-23T11:44:37;96705.13;;;30.02;44.17
60479;BME280;46321;48.398;11.754;2022-07-23T11:47:10;96703.56;;;29.95;43.93
60479;BME280;46321;48.398;11.754;2022-07-23T11:49:37;96703.56;;;29.57;43.35
60479;BME280;46321;48.398;11.754;2022-07-23T11:52:05;96698.75;;;29.48;43.81
60479;BME280;46321;48.398;11.754;2022-07-23T11:54:32;96700.91;;;29.32;45.12
60479;BME280;46321;48.398;11.754;2022-07-23T11:56:58;96701.22;;;29.06;45.00
60479;BME280;46321;48.398;11.754;2022-07-23T11:59:26;96700.38;;;28.81;43.31
60479;BME280;46321;48.398;11.754;2022-07-23T12:02:03;96693.50;;;28.89;42.86
60479;BME280;46321;48.398;11.754;2022-07-23T12:04:47;96688.38;;;29.12;43.02
60479;BME280;46321;48.398;11.754;2022-07-23T12:09:59;96691.97;;;29.26;43.59
60479;BME280;46321;48.398;11.754;2022-07-23T12:12:24;96694.25;;;29.19;42.63
60479;BME280;46321;48.398;11.754;2022-07-23T12:14:58;96688.06;;;29.13;42.53
60479;BME280;46321;48.398;11.754;2022-07-23T12:17:44;96679.22;;;29.22;43.36
60479;BME280;46321;48.398;11.754;2022-07-23T12:20:13;96681.84;;;29.32;43.06
60479;BME280;46321;48.398;11.754;2022-07-23T12:22:46;96673.72;;;29.27;41.61
60479;BME280;46321;48.398;11.754;2022-07-23T12:25:14;96684.19;;;29.39;41.27
60479;BME280;46321;48.398;11.754;2022-07-23T12:27:41;96679.03;;;29.37;41.72
60479;BME280;46321;48.398;11.754;2022-07-23T12:32:46;96677.47;;;29.31;41.73
60479;BME280;46321;48.398;11.754;2022-07-23T12:35:11;96680.00;;;28.78;41.39
60479;BME280;46321;48.398;11.754;2022-07-23T12:37:39;96688.75;;;29.00;42.91
60479;BME280;46321;48.398;11.754;2022-07-23T12:40:34;96673.16;;;28.81;42.81
60479;BME280;46321;48.398;11.754;2022-07-23T12:43:07;96681.78;;;28.88;43.09
60479;BME280;46321;48.398;11.754;2022-07-23T12:45:53;96674.56;;;28.78;42.14
60479;BME280;46321;48.398;11.754;2022-07-23T12:48:23;96678.38;;;29.02;43.39
60479;BME280;46321;48.398;11.754;2022-07-23T12:51:15;96678.25;;;29.12;42.38
60479;BME280;46321;48.398;11.754;2022-07-23T12:53:44;96679.53;;;28.96;43.24
60479;BME280;46321;48.398;11.754;2022-07-23T12:56:15;96677.53;;;29.07;43.15
60479;BME280;46321;48.398;11.754;2022-07-23T13:01:08;96672.72;;;28.49;43.39
60479;BME280;46321;48.398;11.754;2022-07-23T13:03:37;96674.38;;;28.45;43.87
60479;BME280;46321;48.398;11.754;2022-07-23T13:06:05;96682.22;;;28.17;43.49
60479;BME280;46321;48.398;11.754;2022-07-23T13:08:32;96687.88;;;28.55;43.61
60479;BME280;46321;48.398;11.754;2022-07-23T13:10:58;96687.72;;;28.71;43.76
60479;BME280;46321;48.398;11.754;2022-07-23T13:13:25;96690.44;;;28.71;43.44
60479;BME280;46321;48.398;11.754;2022-07-23T13:15:52;96684.00;;;28.62;44.21
60479;BME280;46321;48.398;11.754;2022-07-23T13:18:18;96687.50;;;28.67;43.53
60479;BME280;46321;48.398;11.754;2022-07-23T13:20:45;96680.00;;;28.54;43.79
60479;BME280;46321;48.398;11.754;2022-07-23T13:23:11;96681.97;;;28.48;44.80
60479;BME280;46321;48.398;11.754;2022-07-23T13:25:36;96690.13;;;28.48;44.68
60479;BME280;46321;48.398;11.754;2022-07-23T13:28:02;96690.47;;;28.41;44.54
60479;BME280;46321;48.398;11.754;2022-07-23T13:30:28;96683.22;;;28.26;44.64
60479;BME280;46321;48.398;11.754;2022-07-23T13:32:53;96676.56;;;28.13;45.55
60479;BME280;46321;48.398;11.754;2022-07-23T13:35:19;96680.16;;;27.63;46.43